sensor_id;sensor_type;location;lat;lon;timestamp;pressure;altitude;pressure_sealevel;temperature;humidity
20003;BME280;10162;41.600;23.806;2022-08-19T00:01:41;94950.78;;;19.05;85.06
20003;BME280;10162;41.600;23.806;2022-08-19T00:04:09;94938.84;;;19.03;85.05
20003;BME280;10162;41.600;23.806;2022-08-19T00:09:53;94922.47;;;18.79;85.02
20003;BME280;10162;41.600;23.806;2022-08-19T00:12:19;94943.00;;;18.67;88.29
20003;BME280;10162;41.600;23.806;2022-08-19T00:14:44;94930.47;;;18.84;86.39
20003;BME280;10162;41.600;23.806;2022-08-19T00:20:22;94945.66;;;18.67;88.18
20003;BME280;10162;41.600;23.806;2022-08-19T00:22:48;94930.53;;;18.45;88.44
20003;BME280;10162;41.600;23.806;2022-08-19T00:25:15;94945.16;;;18.26;90.18
20003;BME280;10162;41.600;23.806;2022-08-19T00:30:48;94927.25;;;18.33;88.94
20003;BME280;10162;41.600;23.806;2022-08-19T00:33:14;94931.19;;;18.31;89.40
20003;BME280;10162;41.600;23.806;2022-08-19T00:35:41;94923.16;;;18.69;86.77
20003;BME280;10162;41.600;23.806;2022-08-19T00:38:09;94907.31;;;18.26;88.37
20003;BME280;10162;41.600;23.806;2022-08-19T00:40:35;94894.44;;;18.56;87.64
20003;BME280;10162;41.600;23.806;2022-08-19T00:43:01;94910.34;;;18.56;87.63
20003;BME280;10162;41.600;23.806;2022-08-19T00:45:28;94919.19;;;18.45;88.14
20003;BME280;10162;41.600;23.806;2022-08-19T00:51:14;94909.97;;;18.26;90.69
20003;BME280;10162;41.600;23.806;2022-08-19T00:53:40;94902.75;;;18.43;88.85
20003;BME280;10162;41.600;23.806;2022-08-19T00:56:05;94891.72;;;17.64;92.43
20003;BME280;10162;41.600;23.806;2022-08-19T00:59:03;94916.66;;;18.11;91.80
20003;BME280;10162;41.600;23.806;2022-08-19T01:01:39;94903.53;;;17.78;93.34
20003;BME280;10162;41.600;23.806;2022-08-19T01:04:05;94914.50;;;17.87;93.63
20003;BME280;10162;41.600;23.806;2022-08-19T01:09:36;94909.63;;;18.00;92.45
20003;BME280;10162;41.600;23.806;2022-08-19T01:12:02;94905.53;;;18.31;90.96
20003;BME280;10162;41.600;23.806;2022-08-19T01:14:29;94914.94;;;18.00;90.93
20003;BME280;10162;41.600;23.806;2022-08-19T01:17:32;94930.38;;;18.08;92.73
20003;BME280;10162;41.600;23.806;2022-08-19T01:19:59;94927.56;;;18.15;92.28
20003;BME280;10162;41.600;23.806;2022-08-19T01:22:36;94908.72;;;18.11;91.06
20003;BME280;10162;41.600;23.806;2022-08-19T01:25:06;94897.91;;;17.36;94.46
20003;BME280;10162;41.600;23.806;2022-08-19T01:27:52;94919.75;;;18.03;90.53
20003;BME280;10162;41.600;23.806;2022-08-19T01:30:24;94903.72;;;17.55;92.70
20003;BME280;10162;41.600;23.806;2022-08-19T01:32:52;94903.31;;;17.80;92.98
20003;BME280;10162;41.600;23.806;2022-08-19T01:35:19;94902.44;;;17.57;93.55
20003;BME280;10162;41.600;23.806;2022-08-19T01:41:05;94919.91;;;18.18;91.26
20003;BME280;10162;41.600;23.806;2022-08-19T01:43:32;94919.28;;;17.51;93.32
20003;BME280;10162;41.600;23.806;2022-08-19T01:45:58;94928.06;;;17.57;91.97
20003;BME280;10162;41.600;23.806;2022-08-19T01:51:15;94916.47;;;17.74;92.34
20003;BME280;10162;41.600;23.806;2022-08-19T01:53:41;94926.94;;;17.86;91.71
20003;BME280;10162;41.600;23.806;2022-08-19T01:56:07;94931.78;;;17.39;94.55
20003;BME280;10162;41.600;23.806;2022-08-19T01:58:44;94941.22;;;17.18;96.04
20003;BME280;10162;41.600;23.806;2022-08-19T02:01:13;94925.28;;;17.63;94.47
20003;BME280;10162;41.600;23.806;2022-08-19T02:03:39;94911.06;;;17.86;91.84
20003;BME280;10162;41.600;23.806;2022-08-19T02:06:05;94928.88;;;17.57;93.33
20003;BME280;10162;41.600;23.806;2022-08-19T02:08:50;94927.06;;;17.24;95.86
20003;BME280;10162;41.600;23.806;2022-08-19T02:11:22;94920.31;;;17.67;95.24
20003;BME280;10162;41.600;23.806;2022-08-19T02:13:49;94919.28;;;17.34;94.13
20003;BME280;10162;41.600;23.806;2022-08-19T02:16:17;94908.88;;;17.83;93.94
20003;BME280;10162;41.600;23.806;2022-08-19T02:18:43;94913.13;;;17.62;93.21
20003;BME280;10162;41.600;23.806;2022-08-19T02:21:09;94913.97;;;17.51;93.63
20003;BME280;10162;41.600;23.806;2022-08-19T02:23:36;94914.41;;;17.60;95.27
20003;BME280;10162;41.600;23.806;2022-08-19T02:26:02;94902.41;;;17.35;93.73
20003;BME280;10162;41.600;23.806;2022-08-19T02:32:16;94910.34;;;17.19;95.61
20003;BME280;10162;41.600;23.806;2022-08-19T02:34:42;94909.38;;;16.91;98.00
20003;BME280;10162;41.600;23.806;2022-08-19T02:37:44;94925.47;;;17.07;97.73
20003;BME280;10162;41.600;23.806;2022-08-19T02:40:30;94910.06;;;-95.71;96.70
20003;BME280;10162;41.600;23.806;2022-08-19T02:42:59;94905.28;;;17.17;96.17
20003;BME280;10162;41.600;23.806;2022-08-19T02:45:26;94906.09;;;17.01;97.40
20003;BME280;10162;41.600;23.806;2022-08-19T02:48:02;94924.50;;;17.13;97.84
20003;BME280;10162;41.600;23.806;2022-08-19T02:50:28;94911.22;;;17.24;95.71
20003;BME280;10162;41.600;23.806;2022-08-19T02:52:54;94906.31;;;17.00;97.35
20003;BME280;10162;41.600;23.806;2022-08-19T02:55:19;94908.66;;;16.96;97.45
20003;BME280;10162;41.600;23.806;2022-08-19T03:00:54;94921.19;;;16.89;97.90
20003;BME280;10162;41.600;23.806;2022-08-19T03:03:20;94913.84;;;17.24;95.81
20003;BME280;10162;41.600;23.806;2022-08-19T03:05:46;94913.66;;;16.98;96.55
20003;BME280;10162;41.600;23.806;2022-08-19T03:11:25;94939.22;;;17.75;93.36
20003;BME280;10162;41.600;23.806;2022-08-19T03:13:51;94930.47;;;17.58;92.71
20003;BME280;10162;41.600;23.806;2022-08-19T03:16:23;94938.22;;;17.60;93.21
20003;BME280;10162;41.600;23.806;2022-08-19T03:18:49;94913.69;;;17.31;94.71
20003;BME280;10162;41.600;23.806;2022-08-19T03:21:21;94954.81;;;17.44;95.39
20003;BME280;10162;41.600;23.806;2022-08-19T03:23:49;94944.53;;;17.42;95.61
20003;BME280;10162;41.600;23.806;2022-08-19T03:26:15;94947.97;;;16.81;99.29
20003;BME280;10162;41.600;23.806;2022-08-19T03:28:43;94955.50;;;16.72;100.00
20003;BME280;10162;41.600;23.806;2022-08-19T03:31:13;94956.91;;;16.91;98.86
20003;BME280;10162;41.600;23.806;2022-08-19T03:33:40;94957.72;;;16.52;100.00
20003;BME280;10162;41.600;23.806;2022-08-19T03:36:14;94947.72;;;16.26;100.00
20003;BME280;10162;41.600;23.806;2022-08-19T03:41:54;94961.50;;;16.68;100.00
20003;BME280;10162;41.600;23.806;2022-08-19T03:44:29;94949.31;;;16.27;100.00
20003;BME280;10162;41.600;23.806;2022-08-19T03:50:04;94957.47;;;16.25;100.00
20003;BME280;10162;41.600;23.806;2022-08-19T03:52:30;94966.72;;;16.39;100.00
20003;BME280;10162;41.600;23.806;2022-08-19T03:54:56;94960.47;;;16.17;100.00
20003;BME280;10162;41.600;23.806;2022-08-19T03:57:26;94952.31;;;16.19;100.00
20003;BME280;10162;41.600;23.806;2022-08-19T03:59:52;94973.44;;;16.87;99.92
20003;BME280;10162;41.600;23.806;2022-08-19T04:02:18;94965.13;;;16.95;96.73
20003;BME280;10162;41.600;23.806;2022-08-19T04:04:44;94975.38;;;16.63;99.53
20003;BME280;10162;41.600;23.806;2022-08-19T04:07:14;94970.94;;;16.40;100.00
20003;BME280;10162;41.600;23.806;2022-08-19T04:09:41;94990.66;;;16.89;97.53
20003;BME280;10162;41.600;23.806;2022-08-19T04:12:08;94970.13;;;16.51;99.92
20003;BME280;10162;41.600;23.806;2022-08-19T04:14:34;94996.00;;;16.78;99.35
20003;BME280;10162;41.600;23.806;2022-08-19T04:20:26;94978.22;;;16.73;97.65
20003;BME280;10162;41.600;23.806;2022-08-19T04:22:52;94981.69;;;16.90;97.89
20003;BME280;10162;41.600;23.806;2022-08-19T04:25:18;94968.91;;;17.16;98.07
20003;BME280;10162;41.600;23.806;2022-08-19T04:30:50;94978.06;;;17.08;98.31
20003;BME280;10162;41.600;23.806;2022-08-19T04:33:19;94987.34;;;17.44;97.15
20003;BME280;10162;41.600;23.806;2022-08-19T04:35:47;94995.56;;;17.76;95.11
20003;BME280;10162;41.600;23.806;2022-08-19T04:38:35;94996.25;;;18.27;92.78
20003;BME280;10162;41.600;23.806;2022-08-19T04:41:02;94977.75;;;17.88;93.78
20003;BME280;10162;41.600;23.806;2022-08-19T04:43:47;94988.25;;;18.22;92.55
20003;BME280;10162;41.600;23.806;2022-08-19T04:46:14;94993.91;;;18.52;90.46
20003;BME280;10162;41.600;23.806;2022-08-19T04:48:41;95003.38;;;18.91;87.24
20003;BME280;10162;41.600;23.806;2022-08-19T04:51:10;95011.72;;;19.32;86.03
20003;BME280;10162;41.600;23.806;2022-08-19T04:53:39;94995.69;;;19.17;86.02
20003;BME280;10162;41.600;23.806;2022-08-19T04:56:09;95012.84;;;19.36;85.73
20003;BME280;10162;41.600;23.806;2022-08-19T04:58:36;95007.72;;;19.29;85.96
20003;BME280;10162;41.600;23.806;2022-08-19T05:01:03;95014.63;;;19.57;84.83
20003;BME280;10162;41.600;23.806;2022-08-19T05:03:29;95013.22;;;19.82;82.72
20003;BME280;10162;41.600;23.806;2022-08-19T05:06:08;95020.44;;;19.91;82.21
20003;BME280;10162;41.600;23.806;2022-08-19T05:08:37;95014.78;;;19.77;83.55
20003;BME280;10162;41.600;23.806;2022-08-19T05:11:10;95013.28;;;19.92;82.24
20003;BME280;10162;41.600;23.806;2022-08-19T05:13:37;95003.75;;;19.96;81.56
20003;BME280;10162;41.600;23.806;2022-08-19T05:16:03;95013.75;;;20.20;81.59
20003;BME280;10162;41.600;23.806;2022-08-19T05:18:30;94995.31;;;20.04;80.48
20003;BME280;10162;41.600;23.806;2022-08-19T05:21:17;95012.13;;;20.19;80.89
20003;BME280;10162;41.600;23.806;2022-08-19T05:24:04;95002.09;;;20.27;80.10
20003;BME280;10162;41.600;23.806;2022-08-19T05:26:37;95011.44;;;20.34;80.09
20003;BME280;10162;41.600;23.806;2022-08-19T05:29:04;94999.94;;;20.23;79.00
20003;BME280;10162;41.600;23.806;2022-08-19T05:31:31;95017.63;;;20.50;78.47
20003;BME280;10162;41.600;23.806;2022-08-19T05:33:58;95010.06;;;20.79;77.82
20003;BME280;10162;41.600;23.806;2022-08-19T05:36:28;95018.31;;;20.97;77.77
20003;BME280;10162;41.600;23.806;2022-08-19T05:38:54;95019.16;;;21.13;76.29
20003;BME280;10162;41.600;23.806;2022-08-19T05:41:21;95000.31;;;21.25;74.14
20003;BME280;10162;41.600;23.806;2022-08-19T05:44:00;95008.59;;;21.49;73.67
20003;BME280;10162;41.600;23.806;2022-08-19T05:46:26;95016.06;;;21.57;72.56
20003;BME280;10162;41.600;23.806;2022-08-19T05:48:52;95005.69;;;21.55;72.50
20003;BME280;10162;41.600;23.806;2022-08-19T05:51:17;95012.34;;;21.58;72.97
20003;BME280;10162;41.600;23.806;2022-08-19T05:53:43;95006.47;;;21.66;72.06
20003;BME280;10162;41.600;23.806;2022-08-19T05:56:14;95014.47;;;22.06;70.26
20003;BME280;10162;41.600;23.806;2022-08-19T05:58:43;95002.97;;;22.26;69.57
20003;BME280;10162;41.600;23.806;2022-08-19T06:01:12;95015.69;;;22.44;69.23
20003;BME280;10162;41.600;23.806;2022-08-19T06:03:38;94991.97;;;22.53;68.32
20003;BME280;10162;41.600;23.806;2022-08-19T06:06:06;95004.00;;;22.40;68.73
20003;BME280;10162;41.600;23.806;2022-08-19T06:08:35;94999.22;;;22.37;69.93
20003;BME280;10162;41.600;23.806;2022-08-19T06:12:04;95007.97;;;23.12;66.24
20003;BME280;10162;41.600;23.806;2022-08-19T06:14:31;95003.66;;;23.21;64.84
20003;BME280;10162;41.600;23.806;2022-08-19T06:20:20;95003.13;;;23.58;63.72
20003;BME280;10162;41.600;23.806;2022-08-19T06:22:49;95006.91;;;23.57;64.14
20003;BME280;10162;41.600;23.806;2022-08-19T06:25:17;94997.38;;;23.80;62.13
20003;BME280;10162;41.600;23.806;2022-08-19T06:27:59;94998.91;;;23.57;63.36
20003;BME280;10162;41.600;23.806;2022-08-19T06:30:25;94992.03;;;23.80;62.97
20003;BME280;10162;41.600;23.806;2022-08-19T06:32:52;94994.78;;;23.99;63.21
20003;BME280;10162;41.600;23.806;2022-08-19T06:35:18;94998.47;;;24.08;62.77
20003;BME280;10162;41.600;23.806;2022-08-19T06:41:09;95004.31;;;24.62;60.59
20003;BME280;10162;41.600;23.806;2022-08-19T06:43:35;94997.94;;;24.58;61.10
20003;BME280;10162;41.600;23.806;2022-08-19T06:46:02;95006.75;;;24.83;60.78
20003;BME280;10162;41.600;23.806;2022-08-19T06:48:59;95007.22;;;24.85;61.37
20003;BME280;10162;41.600;23.806;2022-08-19T06:51:25;95020.28;;;24.67;61.69
20003;BME280;10162;41.600;23.806;2022-08-19T06:53:53;95013.31;;;24.72;62.19
20003;BME280;10162;41.600;23.806;2022-08-19T06:56:22;95014.06;;;24.96;60.64
20003;BME280;10162;41.600;23.806;2022-08-19T06:58:50;95010.78;;;25.04;59.81
20003;BME280;10162;41.600;23.806;2022-08-19T07:01:19;95012.13;;;25.01;59.55
20003;BME280;10162;41.600;23.806;2022-08-19T07:03:45;95013.88;;;25.11;59.05
20003;BME280;10162;41.600;23.806;2022-08-19T07:06:15;95006.59;;;25.17;57.10
20003;BME280;10162;41.600;23.806;2022-08-19T07:08:44;94977.53;;;24.86;57.37
20003;BME280;10162;41.600;23.806;2022-08-19T07:11:14;94992.25;;;25.26;56.41
20003;BME280;10162;41.600;23.806;2022-08-19T07:13:41;94990.47;;;25.91;54.28
20003;BME280;10162;41.600;23.806;2022-08-19T07:16:12;95002.00;;;26.06;53.59
20003;BME280;10162;41.600;23.806;2022-08-19T07:18:42;94978.78;;;25.50;54.07
20003;BME280;10162;41.600;23.806;2022-08-19T07:21:15;94987.03;;;25.72;53.71
20003;BME280;10162;41.600;23.806;2022-08-19T07:23:43;94983.84;;;26.03;51.53
20003;BME280;10162;41.600;23.806;2022-08-19T07:26:13;94979.19;;;26.08;52.11
20003;BME280;10162;41.600;23.806;2022-08-19T07:29:05;94991.44;;;26.28;50.86
20003;BME280;10162;41.600;23.806;2022-08-19T07:31:31;94987.59;;;26.34;51.04
20003;BME280;10162;41.600;23.806;2022-08-19T07:34:03;94994.34;;;26.59;50.04
20003;BME280;10162;41.600;23.806;2022-08-19T07:40:31;95007.47;;;26.88;49.90
20003;BME280;10162;41.600;23.806;2022-08-19T07:42:57;94984.59;;;26.63;49.33
20003;BME280;10162;41.600;23.806;2022-08-19T07:45:23;94995.72;;;27.11;49.07
20003;BME280;10162;41.600;23.806;2022-08-19T07:51:36;94991.41;;;27.60;47.36
20003;BME280;10162;41.600;23.806;2022-08-19T07:54:02;94998.13;;;27.71;47.21
20003;BME280;10162;41.600;23.806;2022-08-19T08:00:16;94988.88;;;28.08;45.88
20003;BME280;10162;41.600;23.806;2022-08-19T08:02:42;94972.69;;;27.99;45.51
20003;BME280;10162;41.600;23.806;2022-08-19T08:05:09;94968.91;;;28.00;45.96
20003;BME280;10162;41.600;23.806;2022-08-19T08:11:42;94985.47;;;28.55;45.14
20003;BME280;10162;41.600;23.806;2022-08-19T08:14:16;94969.53;;;28.67;43.39
20003;BME280;10162;41.600;23.806;2022-08-19T08:20:30;94965.56;;;27.94;44.67
20003;BME280;10162;41.600;23.806;2022-08-19T08:22:56;94964.47;;;28.66;43.77
20003;BME280;10162;41.600;23.806;2022-08-19T08:25:40;94959.16;;;28.83;42.75
20003;BME280;10162;41.600;23.806;2022-08-19T08:31:53;94961.25;;;29.12;42.77
20003;BME280;10162;41.600;23.806;2022-08-19T08:34:19;94967.50;;;29.73;42.28
20003;BME280;10162;41.600;23.806;2022-08-19T08:40:47;94961.63;;;29.53;42.31
20003;BME280;10162;41.600;23.806;2022-08-19T08:43:38;94949.56;;;29.68;42.03
20003;BME280;10162;41.600;23.806;2022-08-19T08:51:33;94937.19;;;29.76;42.27
20003;BME280;10162;41.600;23.806;2022-08-19T08:54:01;94932.03;;;30.17;41.28
20003;BME280;10162;41.600;23.806;2022-08-19T09:00:21;94944.25;;;30.15;40.90
20003;BME280;10162;41.600;23.806;2022-08-19T09:02:48;94928.28;;;30.48;39.59
20003;BME280;10162;41.600;23.806;2022-08-19T09:05:14;94933.41;;;30.32;39.79
20003;BME280;10162;41.600;23.806;2022-08-19T09:20:22;94910.66;;;31.00;37.63
20003;BME280;10162;41.600;23.806;2022-08-19T09:22:48;94888.34;;;30.91;37.30
20003;BME280;10162;41.600;23.806;2022-08-19T09:25:20;94897.13;;;31.30;36.79
20003;BME280;10162;41.600;23.806;2022-08-19T09:31:35;94887.81;;;31.60;36.80
20003;BME280;10162;41.600;23.806;2022-08-19T09:34:01;94889.97;;;31.67;36.29
20003;BME280;10162;41.600;23.806;2022-08-19T09:40:18;94890.41;;;32.14;35.28
20003;BME280;10162;41.600;23.806;2022-08-19T09:42:45;94869.13;;;32.12;35.94
20003;BME280;10162;41.600;23.806;2022-08-19T09:45:16;94868.88;;;32.54;34.32
20003;BME280;10162;41.600;23.806;2022-08-19T09:51:29;94882.75;;;32.16;34.06
20003;BME280;10162;41.600;23.806;2022-08-19T09:53:59;94873.50;;;32.41;33.15
20003;BME280;10162;41.600;23.806;2022-08-19T10:00:13;94861.31;;;32.84;31.20
20003;BME280;10162;41.600;23.806;2022-08-19T10:02:39;94847.56;;;32.64;32.98
20003;BME280;10162;41.600;23.806;2022-08-19T10:05:05;94847.06;;;32.99;32.25
20003;BME280;10162;41.600;23.806;2022-08-19T10:11:48;94849.63;;;33.07;32.34
20003;BME280;10162;41.600;23.806;2022-08-19T10:14:15;94833.25;;;33.04;31.63
20003;BME280;10162;41.600;23.806;2022-08-19T10:20:32;94833.81;;;33.09;32.87
20003;BME280;10162;41.600;23.806;2022-08-19T10:23:02;94828.63;;;33.04;31.97
20003;BME280;10162;41.600;23.806;2022-08-19T10:25:32;94816.09;;;33.40;31.25
20003;BME280;10162;41.600;23.806;2022-08-19T10:28:01;94833.00;;;33.21;32.39
20003;BME280;10162;41.600;23.806;2022-08-19T10:30:27;94825.03;;;33.56;32.81
20003;BME280;10162;41.600;23.806;2022-08-19T10:32:53;94827.13;;;33.90;32.97
20003;BME280;10162;41.600;23.806;2022-08-19T10:35:22;94802.22;;;33.41;31.61
20003;BME280;10162;41.600;23.806;2022-08-19T10:37:50;94809.06;;;33.23;30.70
20003;BME280;10162;41.600;23.806;2022-08-19T10:40:16;94795.22;;;33.40;31.91
20003;BME280;10162;41.600;23.806;2022-08-19T10:42:45;94807.97;;;33.99;30.14
20003;BME280;10162;41.600;23.806;2022-08-19T10:45:10;94792.78;;;33.67;31.27
20003;BME280;10162;41.600;23.806;2022-08-19T10:47:36;94799.72;;;33.20;30.50
20003;BME280;10162;41.600;23.806;2022-08-19T10:50:03;94801.88;;;33.43;29.40
20003;BME280;10162;41.600;23.806;2022-08-19T10:52:49;94798.44;;;34.05;29.47
20003;BME280;10162;41.600;23.806;2022-08-19T10:55:16;94799.59;;;33.88;29.46
20003;BME280;10162;41.600;23.806;2022-08-19T10:58:02;94787.25;;;33.75;30.64
20003;BME280;10162;41.600;23.806;2022-08-19T11:00:28;94785.38;;;33.95;30.51
20003;BME280;10162;41.600;23.806;2022-08-19T11:02:56;94788.44;;;34.25;29.25
20003;BME280;10162;41.600;23.806;2022-08-19T11:05:22;94760.91;;;33.91;29.58
20003;BME280;10162;41.600;23.806;2022-08-19T11:07:48;94790.47;;;34.28;27.73
20003;BME280;10162;41.600;23.806;2022-08-19T11:10:16;94744.25;;;34.09;27.87
20003;BME280;10162;41.600;23.806;2022-08-19T11:12:44;94763.84;;;34.33;29.48
20003;BME280;10162;41.600;23.806;2022-08-19T11:15:11;94786.88;;;34.24;28.09
20003;BME280;10162;41.600;23.806;2022-08-19T11:17:39;94746.72;;;34.49;28.17
20003;BME280;10162;41.600;23.806;2022-08-19T11:20:09;94734.78;;;34.53;27.73
20003;BME280;10162;41.600;23.806;2022-08-19T11:22:35;94736.31;;;34.35;28.35
20003;BME280;10162;41.600;23.806;2022-08-19T11:25:01;94722.75;;;34.35;28.58
20003;BME280;10162;41.600;23.806;2022-08-19T11:27:28;94737.59;;;34.57;27.67
20003;BME280;10162;41.600;23.806;2022-08-19T11:29:54;94756.84;;;35.06;28.16
20003;BME280;10162;41.600;23.806;2022-08-19T11:32:20;94737.03;;;34.32;28.64
20003;BME280;10162;41.600;23.806;2022-08-19T11:34:46;94741.41;;;34.91;28.19
20003;BME280;10162;41.600;23.806;2022-08-19T11:37:14;94706.25;;;34.09;27.97
20003;BME280;10162;41.600;23.806;2022-08-19T11:39:41;94714.03;;;34.26;27.90
20003;BME280;10162;41.600;23.806;2022-08-19T11:42:07;94705.34;;;34.55;27.73
20003;BME280;10162;41.600;23.806;2022-08-19T11:44:51;94746.25;;;34.62;28.40
20003;BME280;10162;41.600;23.806;2022-08-19T11:47:24;94732.13;;;34.72;28.26
20003;BME280;10162;41.600;23.806;2022-08-19T11:49:50;94710.38;;;34.72;27.87
20003;BME280;10162;41.600;23.806;2022-08-19T11:52:16;94707.44;;;34.62;28.21
20003;BME280;10162;41.600;23.806;2022-08-19T11:54:43;94713.81;;;34.69;27.92
20003;BME280;10162;41.600;23.806;2022-08-19T11:57:08;94714.59;;;34.70;27.71
20003;BME280;10162;41.600;23.806;2022-08-19T11:59:35;94713.06;;;35.11;26.82
20003;BME280;10162;41.600;23.806;2022-08-19T12:02:01;94699.03;;;35.09;27.04
20003;BME280;10162;41.600;23.806;2022-08-19T12:04:30;94714.91;;;35.94;26.92
20003;BME280;10162;41.600;23.806;2022-08-19T12:10:43;94719.34;;;35.57;26.53
20003;BME280;10162;41.600;23.806;2022-08-19T12:13:12;94705.88;;;35.87;26.03
20003;BME280;10162;41.600;23.806;2022-08-19T12:15:45;94702.97;;;35.76;26.22
20003;BME280;10162;41.600;23.806;2022-08-19T12:22:00;94692.16;;;35.80;26.45
20003;BME280;10162;41.600;23.806;2022-08-19T12:24:31;94683.78;;;35.92;26.35
20003;BME280;10162;41.600;23.806;2022-08-19T12:30:46;94704.97;;;36.05;25.91
20003;BME280;10162;41.600;23.806;2022-08-19T12:33:12;94670.38;;;36.32;26.29
20003;BME280;10162;41.600;23.806;2022-08-19T12:35:43;94683.50;;;36.00;25.09
20003;BME280;10162;41.600;23.806;2022-08-19T12:41:59;94657.78;;;36.21;24.60
20003;BME280;10162;41.600;23.806;2022-08-19T12:44:25;94674.34;;;36.38;25.59
20003;BME280;10162;41.600;23.806;2022-08-19T12:50:43;94674.47;;;36.49;24.32
20003;BME280;10162;41.600;23.806;2022-08-19T12:53:11;94670.66;;;36.57;25.25
20003;BME280;10162;41.600;23.806;2022-08-19T12:55:37;94668.00;;;36.61;25.50
20003;BME280;10162;41.600;23.806;2022-08-19T13:01:20;94667.00;;;36.42;24.91
20003;BME280;10162;41.600;23.806;2022-08-19T13:03:47;94665.31;;;36.31;26.08
20003;BME280;10162;41.600;23.806;2022-08-19T13:06:13;94669.72;;;36.72;25.93
20003;BME280;10162;41.600;23.806;2022-08-19T13:08:42;94668.31;;;36.85;25.25
20003;BME280;10162;41.600;23.806;2022-08-19T13:11:13;94667.66;;;36.62;25.36
20003;BME280;10162;41.600;23.806;2022-08-19T13:13:42;94658.47;;;37.11;25.25
20003;BME280;10162;41.600;23.806;2022-08-19T13:16:11;94655.34;;;36.75;26.13
20003;BME280;10162;41.600;23.806;2022-08-19T13:22:23;94665.56;;;36.85;25.69
20003;BME280;10162;41.600;23.806;2022-08-19T13:24:50;94642.63;;;36.53;25.43
20003;BME280;10162;41.600;23.806;2022-08-19T13:27:17;94654.72;;;36.89;24.66
20003;BME280;10162;41.600;23.806;2022-08-19T13:29:42;94658.25;;;36.90;25.60
20003;BME280;10162;41.600;23.806;2022-08-19T13:32:27;94648.53;;;36.92;25.57
20003;BME280;10162;41.600;23.806;2022-08-19T13:35:12;94650.88;;;36.94;24.92
20003;BME280;10162;41.600;23.806;2022-08-19T13:41:25;94660.25;;;36.96;24.69
20003;BME280;10162;41.600;23.806;2022-08-19T13:44:05;94659.66;;;36.76;25.41
20003;BME280;10162;41.600;23.806;2022-08-19T13:50:26;94656.94;;;36.80;25.36
20003;BME280;10162;41.600;23.806;2022-08-19T13:52:53;94664.31;;;37.09;24.78
20003;BME280;10162;41.600;23.806;2022-08-19T13:55:19;94659.53;;;37.03;25.54
20003;BME280;10162;41.600;23.806;2022-08-19T13:58:08;94655.25;;;37.02;24.96
20003;BME280;10162;41.600;23.806;2022-08-19T14:00:37;94633.97;;;36.77;25.63
20003;BME280;10162;41.600;23.806;2022-08-19T14:03:04;94628.06;;;35.82;26.65
20003;BME280;10162;41.600;23.806;2022-08-19T14:05:31;94630.69;;;36.31;26.15
20003;BME280;10162;41.600;23.806;2022-08-19T14:11:22;94633.16;;;37.10;25.17
20003;BME280;10162;41.600;23.806;2022-08-19T14:13:48;94620.28;;;37.07;25.26
20003;BME280;10162;41.600;23.806;2022-08-19T14:16:16;94626.78;;;36.96;25.36
20003;BME280;10162;41.600;23.806;2022-08-19T14:18:42;94636.13;;;37.35;24.73
20003;BME280;10162;41.600;23.806;2022-08-19T14:21:18;94642.44;;;37.06;25.14
20003;BME280;10162;41.600;23.806;2022-08-19T14:23:46;94632.97;;;37.81;24.08
20003;BME280;10162;41.600;23.806;2022-08-19T14:26:15;94633.44;;;37.93;24.41
20003;BME280;10162;41.600;23.806;2022-08-19T14:28:49;94636.38;;;37.19;25.57
20003;BME280;10162;41.600;23.806;2022-08-19T14:31:17;94627.41;;;37.19;25.24
20003;BME280;10162;41.600;23.806;2022-08-19T14:33:46;94621.66;;;36.57;25.98
20003;BME280;10162;41.600;23.806;2022-08-19T14:36:12;94612.44;;;37.02;25.62
20003;BME280;10162;41.600;23.806;2022-08-19T14:42:25;94612.88;;;36.71;26.00
20003;BME280;10162;41.600;23.806;2022-08-19T14:44:50;94610.81;;;36.61;26.23
20003;BME280;10162;41.600;23.806;2022-08-19T14:51:05;94615.19;;;37.06;25.77
20003;BME280;10162;41.600;23.806;2022-08-19T14:53:32;94621.09;;;37.11;25.82
20003;BME280;10162;41.600;23.806;2022-08-19T14:55:59;94593.19;;;37.25;25.67
20003;BME280;10162;41.600;23.806;2022-08-19T15:02:13;94616.53;;;37.70;24.71
20003;BME280;10162;41.600;23.806;2022-08-19T15:04:39;94627.88;;;38.44;23.78
20003;BME280;10162;41.600;23.806;2022-08-19T15:07:06;94615.44;;;38.54;23.85
20003;BME280;10162;41.600;23.806;2022-08-19T15:09:32;94616.31;;;37.96;24.37
20003;BME280;10162;41.600;23.806;2022-08-19T15:11:59;94591.84;;;38.11;24.34
20003;BME280;10162;41.600;23.806;2022-08-19T15:14:26;94576.72;;;38.34;24.34
20003;BME280;10162;41.600;23.806;2022-08-19T15:20:41;94638.81;;;37.79;24.53
20003;BME280;10162;41.600;23.806;2022-08-19T15:23:11;94583.34;;;37.13;25.42
20003;BME280;10162;41.600;23.806;2022-08-19T15:25:37;94601.69;;;37.64;25.24
20003;BME280;10162;41.600;23.806;2022-08-19T15:31:52;94601.38;;;37.25;25.75
20003;BME280;10162;41.600;23.806;2022-08-19T15:34:22;94573.00;;;36.89;25.81
20003;BME280;10162;41.600;23.806;2022-08-19T15:40:35;94599.00;;;36.83;25.99
20003;BME280;10162;41.600;23.806;2022-08-19T15:43:00;94618.00;;;36.76;25.90
20003;BME280;10162;41.600;23.806;2022-08-19T15:45:26;94600.63;;;36.54;26.35
20003;BME280;10162;41.600;23.806;2022-08-19T15:51:46;94612.97;;;36.44;25.93
20003;BME280;10162;41.600;23.806;2022-08-19T15:54:16;94631.72;;;36.53;26.29
20003;BME280;10162;41.600;23.806;2022-08-19T16:00:28;94611.19;;;36.26;27.60
20003;BME280;10162;41.600;23.806;2022-08-19T16:03:13;94624.78;;;35.70;29.21
20003;BME280;10162;41.600;23.806;2022-08-19T16:05:58;94610.41;;;34.78;32.88
20003;BME280;10162;41.600;23.806;2022-08-19T16:08:43;94591.34;;;32.84;35.09
20003;BME280;10162;41.600;23.806;2022-08-19T16:11:12;94590.53;;;32.68;38.60
20003;BME280;10162;41.600;23.806;2022-08-19T16:13:39;94632.72;;;32.69;36.68